Latest Coastal Weather Observations for Hindmarsh Island

IDS60701

Issued at 4:21 pm CST Saturday 25 June 2016 (issued every 10 minutes, with the page automatically refreshed every 10 minutes)

About coastal observations | Map of coastal stations | Coastal observations for SA | Marine services | Other Formats
Station Details ID: 023894 Name: HINDMARSH ISLAND AWS Lat: -35.52 Lon: 138.82 Height: 11.0 m
Data from the previous 72 hours. | See also: Recent months at Hindmarsh Island
Date/Time
CST
Temp
°C
Wind Pressure Rain since
9am
mm
Weather Cloud Vis
km
Sea
Height
m
Swell
Dir  Spd
kts
Gust
kts
hPa Trend Height
m
Period
s
Dir
25/04:00pm 12.9 N 6 8 1021.5 - 0.0 - - - - - - -
25/03:30pm 13.0 NNW 5 6 1021.7 - 0.0 - - - - - - -
25/03:00pm 12.8 NW 6 7 1021.7 - 0.0 - - - - - - -
25/02:30pm 12.6 NW 6 7 1022.0 - 0.0 - - - - - - -
25/02:00pm 13.0 NW 6 8 1022.2 - 0.0 - - - - - - -
25/01:30pm 13.0 NW 4 6 1022.4 - 0.0 - - - - - - -
25/01:00pm 13.0 N 4 5 1022.7 - 0.0 - - - - - - -
25/12:30pm 12.7 NE 6 8 1023.4 - 0.0 - - - - - - -
25/12:00pm 13.0 NE 8 10 1023.9 - 0.0 - - - - - - -
25/11:30am 13.0 NNE 8 10 1024.3 - 0.0 - - - - - - -
25/11:00am 12.0 N 8 11 1024.5 - 0.0 - - - - - - -
25/10:30am 11.5 N 7 9 1024.8 - 0.0 - - - - - - -
25/10:00am 10.8 N 6 7 1024.8 - 0.0 - - - - - - -
25/09:30am 9.6 NNE 6 7 1024.7 - 0.0 - - - - - - -
25/09:00am 8.4 N 7 8 1024.6 - 1.6 Fine Partly cloudy 15 - - - -
25/08:30am 7.6 N 6 8 1024.3 - 1.6 - - - - - - -
25/08:00am 6.8 N 7 8 1024.3 - 1.6 - - - - - - -
25/07:30am 6.3 N 8 10 1024.0 - 1.6 - - - - - - -
25/07:00am 6.5 N 8 9 1023.7 - 1.6 - - - - - - -
25/06:30am 6.6 N 7 9 1023.5 - 1.6 - - - - - - -
25/06:00am 6.7 N 7 9 1023.4 - 1.6 - - - - - - -
25/05:30am 6.8 N 6 8 1023.3 - 1.4 - - - - - - -
25/05:00am 6.6 NNE 7 8 1023.0 - 1.4 - - - - - - -
25/04:30am 8.0 N 7 8 1023.0 - 1.4 - - - - - - -
25/04:00am 8.7 ENE 4 6 1022.9 - 1.4 - - - - - - -
25/03:30am 9.5 W 6 8 1022.7 - 1.4 - - - - - - -
25/03:00am 8.1 WNW 7 8 1022.6 - 1.4 - - - - - - -
25/02:30am 8.0 NW 6 7 1022.8 - 1.4 - - - - - - -
25/02:00am 8.5 WNW 7 8 1022.6 - 1.4 - - - - - - -
25/01:30am 8.8 WNW 7 8 1022.4 - 1.4 - - - - - - -
25/01:00am 8.5 WNW 6 7 1022.3 - 1.4 - - - - - - -
25/12:30am 8.8 W 6 9 1022.4 - 1.4 - - - - - - -
25/12:00am 8.8 NW 5 7 1022.4 - 1.4 - - - - - - -
 
Date/Time
CST
Temp
°C
Wind Pressure Rain since
9am
mm
Weather Cloud Vis
km
Sea
Height
m
Swell
Dir  Spd
kts
Gust
kts
hPa Trend Height
m
Period
s
Dir
24/11:30pm 9.2 NW 4 5 1022.4 - 1.4 - - - - - - -
24/11:00pm 9.5 WNW 6 8 1022.5 - 1.4 - - - - - - -
24/10:30pm 10.3 WSW 10 13 1022.4 - 1.4 - - - - - - -
24/10:00pm 9.4 WNW 6 8 1022.3 - 1.4 - - - - - - -
24/09:30pm 10.0 WNW 4 7 1022.2 - 1.4 - - - - - - -
24/09:00pm 9.7 WNW 7 10 1021.9 - 1.4 - - - - - - -
24/08:30pm 11.0 SW 14 18 1021.7 - 1.4 - - - - - - -
24/08:00pm 11.0 SW 17 22 1021.4 - 1.4 - - - - - - -
24/07:30pm 11.3 SW 15 18 1021.0 - 1.4 - - - - - - -
24/07:00pm 10.9 SW 15 19 1020.5 - 1.4 - - - - - - -
24/06:30pm 10.7 SSW 16 21 1020.0 - 1.4 - - - - - - -
24/06:00pm 10.4 W 14 19 1019.6 - 1.4 - - - - - - -
24/05:56pm 10.2 W 15 18 1019.6 - 1.4 - - - - - - -
24/05:44pm 10.7 WSW 21 26 1019.4 - 1.2 - - - - - - -
24/05:42pm 10.7 SW 15 26 1019.4 - 1.2 - - - - - - -
24/05:30pm 10.5 SSW 17 23 1019.2 - 1.2 - - - - - - -
24/05:00pm 11.5 SW 16 20 1018.5 - 1.2 - - - - - - -
24/04:30pm 11.4 SSW 18 23 1018.1 - 1.2 - - - - - - -
24/04:19pm 11.5 SW 21 31 1017.9 - 1.2 - - - - - - -
24/04:17pm 11.5 SW 21 31 1017.9 - 1.2 - - - - - - -
24/04:00pm 12.0 SW 20 26 1017.5 - 1.2 - - - - - - -
24/03:30pm 12.1 SW 19 25 1017.3 - 1.2 - - - - - - -
24/03:00pm 11.6 SW 22 26 1016.8 - 1.2 - - - - - - -
24/02:36pm 11.7 SW 22 32 1016.6 - 1.2 - - - - - - -
24/02:34pm 11.7 SW 22 32 1016.6 - 1.2 - - - - - - -
24/02:30pm 11.0 SW 25 33 1016.5 - 1.2 - - - - - - -
24/02:00pm 11.1 SW 25 32 1016.2 - 1.2 - - - - - - -
24/01:52pm 11.7 SW 22 33 1016.2 - 1.2 - - - - - - -
24/01:50pm 11.7 SW 23 33 1016.2 - 1.2 - - - - - - -
24/01:30pm 11.2 SW 21 28 1016.2 - 1.2 - - - - - - -
24/01:01pm 10.4 SW 26 36 1016.3 - 1.2 - - - - - - -
24/01:00pm 10.3 SW 26 36 1016.3 - 1.2 - - - - - - -
24/12:46pm 11.1 SW 20 30 1016.0 - 1.0 - - - - - - -
24/12:44pm 11.1 SW 20 30 1016.0 - 1.0 - - - - - - -
24/12:35pm 10.7 SW 20 25 1016.2 - 1.0 - - - - - - -
24/12:30pm 10.7 WSW 19 25 1016.3 - 1.0 - - - - - - -
24/12:00pm 11.7 WSW 22 29 1015.9 - 0.2 - - - - - - -
24/11:30am 12.1 SW 26 35 1015.7 - 0.2 - - - - - - -
24/11:01am 11.3 SW 29 39 1015.4 - 0.2 - - - - - - -
24/11:00am 11.0 SW 30 39 1015.3 - 0.2 - - - - - - -
24/10:53am 11.4 WSW 25 37 1015.1 - 0.2 - - - - - - -
24/10:51am 11.4 WSW 25 37 1015.1 - 0.2 - - - - - - -
24/10:30am 11.3 SW 26 32 1014.9 - 0.2 - - - - - - -
24/10:00am 10.9 WSW 26 36 1014.3 - 0.2 - - - - - - -
24/09:33am 10.5 SW 24 34 1013.6 - 0.2 - - - - - - -
24/09:31am 10.5 SW 24 34 1013.6 - 0.2 - - - - - - -
24/09:30am 10.1 SW 24 33 1013.5 - 0.2 - - - - - - -
24/09:24am 9.7 SW 23 33 1013.4 - 0.2 - - - - - - -
24/09:12am 8.8 SW 23 39 1013.3 - 0.2 - - - - - - -
24/09:05am 8.8 SSW 35 45 1013.0 - 0.2 - - - - - - -
24/09:02am 9.2 SW 39 45 1012.5 - 0.0 - - - - - - -
24/09:01am 11.0 SW 25 35 1012.6 - 0.0 - - - - - - -
24/09:00am 10.7 SW 25 42 1012.5 - 9.2 Rain Cloudy 6 - - - -
24/08:37am 10.3 SW 27 37 1011.8 - 9.2 - - - - - - -
24/08:30am 10.1 SW 29 38 1011.8 - 9.2 - - - - - - -
24/08:01am 7.9 WSW 29 39 1011.5 - 9.0 - - - - - - -
24/08:00am 7.9 WSW 29 39 1011.6 - 9.0 - - - - - - -
24/07:59am 7.9 WSW 29 39 1011.5 - 9.0 - - - - - - -
24/07:58am 7.8 WSW 30 39 1011.4 - 8.8 - - - - - - -
24/07:55am 8.3 W 19 29 1011.1 - 8.6 - - - - - - -
24/07:53am 8.3 W 19 29 1011.1 - 8.6 - - - - - - -
24/07:30am 8.0 W 16 21 1010.3 - 8.2 - - - - - - -
24/07:00am 7.8 WNW 17 23 1010.1 - 8.2 - - - - - - -
24/06:30am 8.4 W 17 30 1009.7 - 8.2 - - - - - - -
24/06:24am 7.9 W 21 31 1009.6 - 8.2 - - - - - - -
24/06:13am 8.7 W 21 25 1009.3 - 8.2 - - - - - - -
24/06:10am 9.2 WSW 31 36 1008.8 - 8.2 - - - - - - -
24/06:04am 9.1 W 20 31 1008.8 - 8.2 - - - - - - -
24/06:02am 9.1 W 20 31 1008.8 - 8.2 - - - - - - -
24/06:00am 9.0 W 20 27 1008.8 - 8.2 - - - - - - -
24/05:31am 8.7 WSW 20 32 1008.1 - 8.2 - - - - - - -
24/05:30am 8.7 WSW 20 29 1008.1 - 8.2 - - - - - - -
24/05:24am 7.9 WSW 22 32 1008.2 - 8.0 - - - - - - -
24/05:23am 8.0 WSW 22 33 1008.3 - 8.0 - - - - - - -
24/05:21am 8.1 W 23 32 1008.2 - 7.8 - - - - - - -
24/05:20am 7.9 WSW 26 33 1008.1 - 8.0 - - - - - - -
24/05:18am 8.3 WNW 16 28 1008.0 - 7.8 - - - - - - -
24/05:16am 8.3 WNW 16 28 1008.0 - 7.8 - - - - - - -
24/05:00am 8.0 W 15 24 1007.5 - 7.8 - - - - - - -
24/04:55am 8.4 W 16 26 1007.6 - 7.8 - - - - - - -
24/04:43am 9.0 WNW 17 20 1007.1 - 7.8 - - - - - - -
24/04:41am 9.0 WNW 17 28 1007.1 - 7.8 - - - - - - -
24/04:30am 8.6 WSW 22 41 1006.9 - 7.8 - - - - - - -
24/04:23am 9.3 WSW 25 41 1006.6 - 7.6 - - - - - - -
24/04:22am 9.0 W 16 27 1007.0 - 7.6 - - - - - - -
24/04:21am 9.3 WSW 25 41 1006.6 - 7.6 - - - - - - -
24/04:20am 9.0 W 17 27 1007.0 - 7.6 - - - - - - -
24/04:00am 9.0 W 13 19 1006.4 - 7.6 - - - - - - -
24/03:30am 8.8 W 17 23 1006.0 - 7.6 - - - - - - -
24/03:16am 9.0 WSW 20 30 1005.8 - 7.6 - - - - - - -
24/03:15am 9.0 WSW 20 30 1005.8 - 7.6 - - - - - - -
24/03:00am 8.3 WSW 25 32 1005.4 - 7.6 - - - - - - -
24/02:51am 8.5 SW 27 37 1005.7 - 7.6 - - - - - - -
24/02:49am 8.6 SW 29 37 1005.5 - 7.6 - - - - - - -
24/02:34am 8.1 W 20 36 1005.4 - 7.0 - - - - - - -
24/02:32am 8.1 W 20 36 1005.4 - 7.0 - - - - - - -
24/02:30am 8.5 W 20 27 1005.8 - 7.0 - - - - - - -
24/02:06am 8.4 WSW 19 29 1005.1 - 6.6 - - - - - - -
24/02:00am 8.4 WSW 22 29 1004.9 - 6.6 - - - - - - -
24/01:35am 9.5 W 17 31 1004.8 - 6.4 - - - - - - -
24/01:33am 9.5 W 17 31 1004.8 - 6.4 - - - - - - -
24/01:30am 9.8 W 16 22 1004.6 - 6.4 - - - - - - -
24/01:19am 9.7 W 15 25 1004.2 - 6.4 - - - - - - -
24/01:17am 9.7 W 15 25 1004.2 - 6.4 - - - - - - -
24/01:13am 9.9 W 16 25 1004.3 - 6.4 - - - - - - -
24/01:11am 9.9 W 16 25 1004.3 - 6.4 - - - - - - -
24/01:00am 9.1 WNW 8 14 1004.5 - 6.4 - - - - - - -
24/12:30am 9.9 W 12 18 1004.4 - 6.4 - - - - - - -
24/12:00am 9.8 WSW 13 17 1004.1 - 6.4 - - - - - - -
 
Date/Time
CST
Temp
°C
Wind Pressure Rain since
9am
mm
Weather Cloud Vis
km
Sea
Height
m
Swell
Dir  Spd
kts
Gust
kts
hPa Trend Height
m
Period
s
Dir
23/11:30pm 9.7 W 11 15 1004.1 - 6.4 - - - - - - -
23/11:00pm 9.7 W 12 17 1004.3 - 6.4 - - - - - - -
23/10:30pm 9.2 W 13 19 1004.2 - 6.4 - - - - - - -
23/10:00pm 9.1 W 14 21 1004.2 - 6.4 - - - - - - -
23/09:30pm 8.6 W 11 16 1004.1 - 6.4 - - - - - - -
23/09:00pm 8.6 W 16 21 1003.8 - 6.4 - - - - - - -
23/08:49pm 8.9 WSW 21 31 1004.0 - 6.4 - - - - - - -
23/08:47pm 8.9 WSW 21 31 1004.0 - 6.4 - - - - - - -
23/08:45pm 9.0 WSW 23 31 1004.0 - 6.4 - - - - - - -
23/08:44pm 9.0 WSW 23 31 1004.0 - 6.4 - - - - - - -
23/08:30pm 8.6 W 12 16 1003.8 - 6.4 - - - - - - -
23/08:00pm 8.5 W 11 17 1003.3 - 6.4 - - - - - - -
23/07:30pm 8.9 W 18 31 1003.1 - 6.4 - - - - - - -
23/07:16pm 10.2 W 16 30 1003.0 - 6.0 - - - - - - -
23/07:15pm 10.3 W 15 24 1003.0 - 6.0 - - - - - - -
23/07:14pm 10.2 W 17 30 1003.0 - 6.0 - - - - - - -
23/07:12pm 10.3 W 15 24 1003.0 - 6.0 - - - - - - -
23/07:00pm 9.2 WNW 7 9 1002.5 - 6.0 - - - - - - -
23/06:30pm 9.8 WNW 7 9 1002.3 - 6.0 - - - - - - -
23/06:00pm 10.2 WNW 8 10 1001.9 - 6.0 - - - - - - -
23/05:30pm 10.4 WNW 9 15 1001.7 - 6.0 - - - - - - -
23/05:00pm 10.7 WNW 12 16 1001.4 - 6.0 - - - - - - -
23/04:30pm 10.9 WNW 11 14 1001.3 - 6.0 - - - - - - -
23/04:00pm 11.0 WNW 11 16 1001.1 - 6.0 - - - - - - -
23/03:30pm 10.8 WNW 13 17 1001.1 - 6.0 - - - - - - -
23/03:00pm 10.1 WNW 11 16 1000.6 - 6.0 - - - - - - -
23/02:30pm 10.4 W 17 24 1001.0 - 5.8 - - - - - - -
23/02:28pm 10.6 W 18 28 1001.2 - 5.6 - - - - - - -
23/02:20pm 11.0 W 18 25 1001.2 - 5.4 - - - - - - -
23/02:00pm 11.4 W 12 20 1000.7 - 5.2 - - - - - - -
23/01:30pm 11.7 W 12 16 1000.4 - 5.2 - - - - - - -
23/01:00pm 11.8 WNW 10 14 1000.8 - 5.2 - - - - - - -
23/12:30pm 10.9 WNW 13 20 1001.1 - 5.2 - - - - - - -
23/12:00pm 11.1 WNW 19 28 1001.3 - 5.0 - - - - - - -
23/11:30am 10.8 WNW 16 24 1001.5 - 3.6 - - - - - - -
23/11:22am 10.5 WNW 21 28 1001.4 - 3.6 - - - - - - -
23/11:00am 10.1 W 22 32 1001.6 - 2.4 - - - - - - -
23/10:43am 10.7 W 20 36 1001.8 - 0.6 - - - - - - -
23/10:41am 12.5 W 20 30 1002.1 - 0.6 - - - - - - -
23/10:40am 12.5 W 22 30 1002.0 - 0.6 - - - - - - -
23/10:39am 12.5 W 19 36 1002.1 - 0.6 - - - - - - -
23/10:30am 12.3 NW 28 42 1001.1 - 0.6 - - - - - - -
23/10:00am 13.3 WNW 28 42 1000.3 - 0.0 - - - - - - -
23/09:53am 13.4 WNW 28 39 1000.1 - 0.0 - - - - - - -
23/09:51am 13.7 WNW 30 37 1000.3 - 0.0 - - - - - - -
23/09:30am 14.4 NW 18 32 1000.8 - 0.0 - - - - - - -
23/09:08am 14.1 NW 18 29 1000.9 - 0.0 - - - - - - -
23/09:06am 14.1 NW 18 29 1000.9 - 0.0 - - - - - - -
23/09:00am 14.0 NW 19 27 1001.0 - 0.0 - - - - - - -
23/08:33am 13.6 NW 20 30 1001.3 - 0.0 - - - - - - -
23/08:31am 13.6 NW 20 30 1001.3 - 0.0 - - - - - - -
23/08:30am 13.6 NW 21 30 1001.2 - 0.0 - - - - - - -
23/08:00am 13.3 NW 19 30 1001.6 - 0.0 - - - - - - -
23/07:42am 13.5 NW 21 34 1001.5 - 0.0 - - - - - - -
23/07:40am 13.5 NW 20 34 1001.5 - 0.0 - - - - - - -
23/07:30am 13.4 NW 19 26 1001.6 - 0.0 - - - - - - -
23/07:08am 13.3 NW 18 28 1001.8 - 0.0 - - - - - - -
23/07:06am 13.3 NW 18 28 1001.8 - 0.0 - - - - - - -
23/07:00am 13.1 NW 17 26 1001.8 - 0.0 - - - - - - -
23/06:46am 13.1 NW 15 25 1002.0 - 0.0 - - - - - - -
23/06:44am 13.1 NW 15 25 1002.0 - 0.0 - - - - - - -
23/06:30am 13.2 NW 15 23 1002.3 - 0.0 - - - - - - -
23/06:12am 13.5 NW 16 26 1002.4 - 0.0 - - - - - - -
23/06:00am 13.4 NW 15 25 1002.6 - 0.0 - - - - - - -
23/05:58am 13.4 NW 15 25 1002.6 - 0.0 - - - - - - -
23/05:30am 13.5 NW 17 23 1002.8 - 0.0 - - - - - - -
23/05:00am 13.1 NW 17 26 1003.3 - 0.0 - - - - - - -
23/04:56am 13.3 NW 15 26 1003.1 - 0.0 - - - - - - -
23/04:54am 13.3 NW 15 26 1003.1 - 0.0 - - - - - - -
23/04:30am 13.2 NNW 14 21 1003.5 - 0.0 - - - - - - -
23/04:00am 13.1 NNW 13 22 1004.0 - 0.0 - - - - - - -
23/03:30am 13.6 NW 15 23 1004.4 - 0.0 - - - - - - -
23/03:19am 13.6 NNW 17 27 1004.5 - 0.0 - - - - - - -
23/03:18am 13.6 NNW 17 27 1004.5 - 0.0 - - - - - - -
23/03:00am 13.5 NW 17 25 1004.6 - 0.0 - - - - - - -
23/02:30am 13.3 NNW 18 25 1004.7 - 0.0 - - - - - - -
23/02:19am 13.2 NNW 17 27 1005.0 - 0.0 - - - - - - -
23/02:17am 13.2 NNW 17 27 1005.0 - 0.0 - - - - - - -
23/02:00am 13.3 NW 19 27 1005.1 - 0.0 - - - - - - -
23/01:35am 13.3 NW 18 28 1005.4 - 0.0 - - - - - - -
23/01:30am 13.4 NW 18 27 1005.4 - 0.0 - - - - - - -
23/01:28am 13.4 NW 17 27 1005.4 - 0.0 - - - - - - -
23/01:00am 13.3 NW 17 23 1005.8 - 0.0 - - - - - - -
23/12:34am 13.5 NW 17 27 1006.2 - 0.0 - - - - - - -
23/12:32am 13.5 NW 17 27 1006.2 - 0.0 - - - - - - -
23/12:30am 13.5 NW 17 25 1006.3 - 0.0 - - - - - - -
23/12:00am 13.6 NW 19 28 1006.3 - 0.0 - - - - - - -
 
Date/Time
CST
Temp
°C
Wind Pressure Rain since
9am
mm
Weather Cloud Vis
km
Sea
Height
m
Swell
Dir  Spd
kts
Gust
kts
hPa Trend Height
m
Period
s
Dir
22/11:30pm 13.5 NW 15 21 1006.9 - 0.0 - - - - - - -
22/11:00pm 13.5 NW 17 23 1007.0 - 0.0 - - - - - - -
22/10:30pm 13.4 NW 17 24 1007.2 - 0.0 - - - - - - -
22/10:00pm 13.4 NW 16 20 1007.7 - 0.0 - - - - - - -
22/09:30pm 13.4 NW 15 21 1007.9 - 0.0 - - - - - - -
22/09:00pm 13.6 NW 16 22 1008.1 - 0.0 - - - - - - -
22/08:30pm 13.7 NW 16 22 1008.0 - 0.0 - - - - - - -
22/08:00pm 13.0 NW 12 16 1008.2 - 0.0 - - - - - - -
22/07:30pm 13.1 NW 12 16 1008.3 - 0.0 - - - - - - -
22/07:00pm 13.0 NNW 11 14 1008.3 - 0.0 - - - - - - -
22/06:30pm 13.0 NNW 10 15 1008.1 - 0.0 - - - - - - -
22/06:00pm 13.3 NNW 11 15 1008.1 - 0.0 - - - - - - -
22/05:30pm 13.5 NW 12 17 1007.9 - 0.0 - - - - - - -
22/05:00pm 13.6 NW 8 14 1008.0 - 0.0 - - - - - - -
22/04:35pm 13.7 NW 15 25 1008.0 - 0.0 - - - - - - -
22/04:33pm 13.7 NW 15 25 1008.0 - 0.0 - - - - - - -
22/04:30pm 13.7 NW 16 25 1008.0 - 0.0 - - - - - - -

Other Formats:

Comma delimited format used in spreadsheet applications
http://www.bom.gov.au/fwo/IDS60701/IDS60701.94677.axf

JavaScript Object Notation format (JSON) in row-major order
http://www.bom.gov.au/fwo/IDS60701/IDS60701.94677.json